Time;durP1;ratioP1;P1;durP2;ratioP2;P2;SDS_P1;SDS_P2;PMS_P1;PMS_P2;Temp;Humidity;BMP_temperature;BMP_pressure;BME280_temperature;BME280_humidity;BME280_pressure;Samples;Min_cycle;Max_cycle;Signal;HPM_P1;HPM_P2
2023/11/13 00:02:09;;;;;;;125.53;114.85;;;6.40;99.90;;;;;;5041357;28;20212;-81
2023/11/13 00:04:35;;;;;;;118.10;107.15;;;6.40;99.90;;;;;;5041037;28;20590;-81
2023/11/13 00:07:01;;;;;;;139.40;128.20;;;6.40;99.90;;;;;;5041329;28;20226;-81
2023/11/13 00:09:26;;;;;;;130.83;119.57;;;6.50;99.90;;;;;;5023994;28;20204;-81
2023/11/13 00:11:53;;;;;;;117.33;106.73;;;6.50;99.90;;;;;;5040895;28;20409;-82
2023/11/13 00:14:19;;;;;;;130.88;119.85;;;6.60;99.90;;;;;;5040894;28;20238;-81
2023/11/13 00:16:45;;;;;;;124.70;113.57;;;6.60;99.90;;;;;;5041549;28;20173;-81
2023/11/13 00:19:10;;;;;;;126.23;115.50;;;6.50;99.90;;;;;;5041569;28;20413;-81
2023/11/13 00:21:36;;;;;;;131.77;120.87;;;6.60;99.90;;;;;;5041877;28;20459;-81
2023/11/13 00:24:02;;;;;;;119.50;109.47;;;6.60;99.90;;;;;;5041107;28;20559;-81
2023/11/13 00:26:27;;;;;;;113.13;103.10;;;6.70;99.90;;;;;;5041183;28;20185;-81
2023/11/13 00:28:53;;;;;;;113.03;102.83;;;6.70;99.90;;;;;;5024219;28;20264;-81
2023/11/13 00:31:19;;;;;;;135.73;124.57;;;6.70;99.90;;;;;;5041447;28;20177;-81
2023/11/13 00:33:48;;;;;;;124.13;113.47;;;6.70;99.90;;;;;;5024073;28;20200;-81
2023/11/13 00:36:17;;;;;;;120.43;109.88;;;6.70;99.90;;;;;;5041096;28;20162;-81
2023/11/13 00:38:42;;;;;;;133.70;122.70;;;6.70;99.90;;;;;;5041812;28;20177;-81
2023/11/13 00:41:14;;;;;;;130.97;120.00;;;6.70;99.90;;;;;;5023949;28;20182;-81
2023/11/13 00:43:42;;;;;;;125.65;115.28;;;6.80;99.90;;;;;;5041779;28;20451;-81
2023/11/13 00:46:07;;;;;;;139.93;128.98;;;6.70;99.90;;;;;;5041739;28;20173;-81
2023/11/13 00:48:33;;;;;;;138.93;127.77;;;6.70;99.90;;;;;;5042426;28;20158;-81
2023/11/13 00:51:01;;;;;;;121.83;111.37;;;6.70;99.90;;;;;;5041750;28;20166;-82
2023/11/13 00:53:34;;;;;;;134.23;122.97;;;6.70;99.90;;;;;;5041611;28;20458;-82
2023/11/13 00:56:00;;;;;;;112.40;102.72;;;6.70;99.90;;;;;;5041985;28;20162;-81
2023/11/13 00:58:26;;;;;;;138.20;126.73;;;6.60;99.90;;;;;;5041804;28;20179;-82
2023/11/13 01:00:52;;;;;;;133.70;122.38;;;6.70;99.90;;;;;;5041050;28;20169;-82
2023/11/13 01:03:17;;;;;;;148.70;136.67;;;6.60;99.90;;;;;;5041345;28;20193;-81
2023/11/13 01:05:43;;;;;;;126.07;115.23;;;6.70;99.90;;;;;;5024051;28;20547;-81
2023/11/13 01:08:10;;;;;;;131.90;121.33;;;6.70;99.90;;;;;;5041726;28;20167;-81
2023/11/13 01:10:36;;;;;;;136.18;124.93;;;6.70;99.90;;;;;;5041062;28;20428;-81
2023/11/13 01:13:02;;;;;;;122.33;112.00;;;6.70;99.90;;;;;;5041248;28;20181;-81
2023/11/13 01:15:27;;;;;;;162.20;150.20;;;6.70;99.90;;;;;;5024004;28;20193;-81
2023/11/13 01:17:53;;;;;;;134.67;123.60;;;6.80;99.90;;;;;;5041433;28;20408;-81
2023/11/13 01:20:19;;;;;;;138.27;127.20;;;6.80;99.90;;;;;;5041341;28;20166;-81
2023/11/13 01:22:45;;;;;;;141.77;130.43;;;6.80;99.90;;;;;;5040549;28;20170;-81
2023/11/13 01:25:11;;;;;;;130.40;119.53;;;6.80;99.90;;;;;;5025314;28;20208;-81
2023/11/13 01:27:36;;;;;;;133.47;122.87;;;6.70;99.90;;;;;;5044054;28;20169;-81
2023/11/13 01:30:02;;;;;;;131.10;120.53;;;6.70;99.90;;;;;;5043856;28;20404;-81
2023/11/13 01:32:28;;;;;;;132.13;121.22;;;6.80;99.90;;;;;;5043765;28;20166;-81
2023/11/13 01:34:54;;;;;;;130.77;119.90;;;6.80;99.90;;;;;;5043716;28;20177;-81
2023/11/13 01:37:19;;;;;;;145.77;134.63;;;6.80;99.90;;;;;;5025947;28;20197;-81
2023/11/13 01:39:45;;;;;;;125.80;115.53;;;6.80;99.90;;;;;;5044109;28;20166;-81
2023/11/13 01:42:11;;;;;;;126.87;116.27;;;6.80;99.90;;;;;;5041970;28;20197;-81
2023/11/13 01:44:36;;;;;;;128.37;117.80;;;6.90;99.90;;;;;;5038428;28;20555;-81
2023/11/13 01:47:04;;;;;;;132.23;121.47;;;6.80;99.90;;;;;;5039102;28;20173;-81
2023/11/13 01:49:31;;;;;;;138.80;127.78;;;6.90;99.90;;;;;;5039313;28;20166;-81
2023/11/13 01:51:57;;;;;;;155.88;143.95;;;6.90;99.90;;;;;;5039148;28;20162;-81
2023/11/13 01:54:24;;;;;;;125.00;114.83;;;6.90;99.90;;;;;;5039187;28;20196;-81
2023/11/13 01:56:51;;;;;;;133.88;123.00;;;6.90;99.90;;;;;;5039085;28;20419;-81
2023/11/13 01:59:17;;;;;;;129.35;118.22;;;6.90;99.90;;;;;;5039017;28;20177;-81
2023/11/13 02:01:43;;;;;;;116.93;107.13;;;6.90;99.90;;;;;;5039162;28;20165;-81
2023/11/13 02:04:09;;;;;;;118.38;108.38;;;6.90;99.90;;;;;;5038750;28;20864;-81
2023/11/13 02:06:34;;;;;;;126.93;116.20;;;6.90;99.90;;;;;;5041446;28;20170;-81
2023/11/13 02:09:00;;;;;;;113.33;103.47;;;6.90;99.90;;;;;;5040090;28;20205;-81
2023/11/13 02:11:26;;;;;;;139.70;128.13;;;6.90;99.90;;;;;;5040285;28;20173;-81
2023/11/13 02:13:55;;;;;;;135.33;124.43;;;7.00;99.90;;;;;;5021410;28;20190;-81
2023/11/13 02:16:21;;;;;;;123.28;113.25;;;7.00;99.90;;;;;;5038572;28;20413;-81
2023/11/13 02:18:47;;;;;;;142.93;132.10;;;7.00;99.90;;;;;;5039352;28;20530;-81
2023/11/13 02:21:13;;;;;;;151.10;139.50;;;7.00;99.90;;;;;;5039469;28;20256;-81
2023/11/13 02:23:38;;;;;;;145.33;134.03;;;7.00;99.90;;;;;;5038949;28;20846;-81
2023/11/13 02:26:11;;;;;;;124.63;114.63;;;7.10;99.90;;;;;;5039474;28;20208;-81
2023/11/13 02:28:37;;;;;;;131.57;121.05;;;7.10;99.90;;;;;;5021927;28;20159;-81
2023/11/13 02:31:03;;;;;;;126.03;115.93;;;7.10;99.90;;;;;;5039639;28;20651;-81
2023/11/13 02:33:28;;;;;;;152.00;140.37;;;7.10;99.90;;;;;;5021241;28;20304;-81
2023/11/13 02:35:54;;;;;;;125.73;115.27;;;7.20;99.90;;;;;;5038344;28;20412;-81
2023/11/13 02:38:20;;;;;;;119.77;109.87;;;7.20;99.90;;;;;;5021329;28;20237;-81
2023/11/13 02:40:45;;;;;;;132.77;122.40;;;7.20;99.90;;;;;;5038536;28;20169;-81
2023/11/13 02:43:11;;;;;;;136.03;125.63;;;7.20;99.90;;;;;;5038400;28;20273;-81
2023/11/13 02:45:37;;;;;;;118.13;108.37;;;7.20;99.90;;;;;;5020718;28;20173;-81
2023/11/13 02:48:03;;;;;;;121.60;111.60;;;7.20;99.90;;;;;;5038175;28;20170;-81
2023/11/13 02:50:31;;;;;;;126.27;115.77;;;7.20;99.90;;;;;;5037785;28;20172;-81
2023/11/13 02:53:00;;;;;;;137.02;126.10;;;7.30;99.90;;;;;;5037847;28;20439;-81
2023/11/13 02:55:26;;;;;;;125.55;115.13;;;7.20;99.90;;;;;;5037708;28;20213;-81
2023/11/13 02:57:52;;;;;;;135.25;124.63;;;7.20;99.90;;;;;;5020251;28;20170;-81
2023/11/13 03:00:19;;;;;;;135.60;125.17;;;7.20;99.90;;;;;;5037742;28;20233;-81
2023/11/13 03:02:45;;;;;;;141.90;131.15;;;7.20;99.90;;;;;;5038258;28;20158;-81
2023/11/13 03:05:11;;;;;;;160.23;148.43;;;7.20;99.90;;;;;;5037694;28;20281;-81
2023/11/13 03:07:37;;;;;;;131.60;121.20;;;7.30;99.90;;;;;;5037939;28;20166;-81
2023/11/13 03:10:03;;;;;;;157.10;145.30;;;7.30;99.90;;;;;;5019952;28;20162;-81
2023/11/13 03:12:29;;;;;;;196.77;183.68;;;7.40;99.90;;;;;;5037113;28;20409;-81
2023/11/13 03:14:54;;;;;;;144.43;133.50;;;7.40;99.90;;;;;;5019445;28;20189;-81
2023/11/13 03:17:20;;;;;;;181.93;169.40;;;7.40;99.90;;;;;;5036922;28;20162;-81
2023/11/13 03:19:46;;;;;;;143.77;133.07;;;7.40;99.90;;;;;;5037317;28;20639;-81
2023/11/13 03:22:11;;;;;;;150.70;139.17;;;7.40;99.90;;;;;;5037579;28;20251;-81
2023/11/13 03:24:37;;;;;;;126.37;116.07;;;7.50;99.90;;;;;;5037406;28;20185;-80
2023/11/13 03:27:03;;;;;;;171.90;159.43;;;7.50;99.90;;;;;;5037720;28;20166;-80
2023/11/13 03:29:29;;;;;;;152.87;141.83;;;7.50;99.90;;;;;;5037262;28;20397;-80
2023/11/13 03:31:55;;;;;;;169.93;157.77;;;7.50;99.90;;;;;;5037645;28;20479;-80
2023/11/13 03:34:21;;;;;;;156.53;145.27;;;7.50;99.90;;;;;;5038776;28;20264;-80
2023/11/13 03:36:47;;;;;;;155.30;144.00;;;7.50;99.90;;;;;;5041263;28;20537;-80
2023/11/13 03:39:14;;;;;;;156.25;144.88;;;7.40;99.90;;;;;;5047933;28;20165;-81
2023/11/13 03:41:40;;;;;;;189.15;176.35;;;7.40;99.90;;;;;;5045398;28;20181;-81
2023/11/13 03:44:06;;;;;;;176.60;164.20;;;7.40;99.90;;;;;;5045142;28;20190;-81
2023/11/13 03:46:32;;;;;;;170.85;158.40;;;7.40;99.90;;;;;;5045664;28;20623;-81
2023/11/13 03:48:58;;;;;;;152.17;140.97;;;7.40;99.90;;;;;;5045436;28;20162;-81
2023/11/13 03:51:24;;;;;;;145.23;134.30;;;7.40;99.90;;;;;;5046043;28;20431;-81
2023/11/13 03:53:50;;;;;;;147.37;136.37;;;7.40;99.90;;;;;;5046114;28;20193;-81
2023/11/13 03:56:19;;;;;;;165.85;154.10;;;7.40;99.90;;;;;;5045378;28;20409;-81
2023/11/13 03:58:44;;;;;;;161.30;149.65;;;7.30;99.90;;;;;;5045121;28;20589;-81
2023/11/13 04:01:11;;;;;;;167.00;155.07;;;7.40;99.90;;;;;;5027539;28;20169;-81
2023/11/13 04:03:36;;;;;;;195.98;182.88;;;7.30;99.90;;;;;;5042557;28;20217;-81
2023/11/13 04:06:02;;;;;;;158.53;147.10;;;7.30;99.90;;;;;;5040603;28;20154;-81
2023/11/13 04:08:29;;;;;;;181.13;168.43;;;7.30;99.90;;;;;;5040520;28;20636;-81
2023/11/13 04:10:55;;;;;;;170.35;158.50;;;7.30;99.90;;;;;;5041226;28;20440;-81
2023/11/13 04:13:21;;;;;;;169.80;157.33;;;7.30;99.90;;;;;;5041203;28;20190;-82
2023/11/13 04:15:47;;;;;;;151.37;140.20;;;7.30;99.90;;;;;;5041302;28;20405;-82
2023/11/13 04:18:13;;;;;;;168.30;156.63;;;7.30;99.90;;;;;;5023276;28;20416;-82
2023/11/13 04:20:40;;;;;;;150.85;139.65;;;7.30;99.90;;;;;;5040997;28;20478;-82
2023/11/13 04:23:08;;;;;;;184.90;171.55;;;7.40;99.90;;;;;;5040400;28;20182;-82
2023/11/13 04:25:34;;;;;;;196.05;182.65;;;7.40;99.90;;;;;;5040172;28;20165;-82
2023/11/13 04:28:01;;;;;;;199.50;186.07;;;7.40;99.90;;;;;;5039296;28;20686;-82
2023/11/13 04:30:27;;;;;;;205.93;192.43;;;7.40;99.90;;;;;;5039611;28;20166;-82
2023/11/13 04:32:56;;;;;;;210.85;197.15;;;7.40;99.90;;;;;;5039081;28;20574;-82
2023/11/13 04:35:22;;;;;;;176.52;164.30;;;7.40;99.90;;;;;;5039428;28;20659;-82
2023/11/13 04:37:48;;;;;;;203.45;189.88;;;7.40;99.90;;;;;;5038631;28;20169;-82
2023/11/13 04:40:14;;;;;;;214.53;200.73;;;7.50;99.90;;;;;;5039553;28;20166;-82
2023/11/13 04:42:39;;;;;;;207.23;193.65;;;7.40;99.90;;;;;;5039672;28;20177;-82
2023/11/13 04:45:05;;;;;;;172.87;160.83;;;7.50;99.90;;;;;;5038708;28;20285;-82
2023/11/13 04:47:31;;;;;;;203.98;190.43;;;7.50;99.90;;;;;;5038985;28;20158;-82
2023/11/13 04:49:58;;;;;;;191.43;178.83;;;7.60;99.90;;;;;;5038442;28;20524;-82
2023/11/13 04:52:23;;;;;;;231.88;217.40;;;7.50;99.90;;;;;;5039022;28;20165;-82
2023/11/13 04:54:50;;;;;;;195.00;181.97;;;7.50;99.90;;;;;;5039009;28;20186;-82
2023/11/13 04:57:16;;;;;;;209.98;196.18;;;7.60;99.90;;;;;;5038739;28;20169;-82
2023/11/13 04:59:42;;;;;;;224.63;210.10;;;7.60;99.90;;;;;;5040566;28;20170;-82
2023/11/13 05:02:09;;;;;;;216.00;201.70;;;7.60;99.90;;;;;;5043550;28;20233;-82
2023/11/13 05:04:35;;;;;;;215.45;201.48;;;7.60;99.90;;;;;;5043075;28;20467;-82
2023/11/13 05:07:00;;;;;;;161.87;150.13;;;7.60;99.90;;;;;;5024979;28;20708;-82
2023/11/13 05:09:26;;;;;;;209.60;195.63;;;7.60;99.90;;;;;;5044440;28;20550;-82
2023/11/13 05:11:52;;;;;;;214.67;200.67;;;7.60;99.90;;;;;;5044903;28;20158;-82
2023/11/13 05:14:18;;;;;;;208.88;195.43;;;7.60;99.90;;;;;;5026826;28;20655;-82
2023/11/13 05:16:44;;;;;;;195.97;182.63;;;7.70;99.90;;;;;;5044750;28;20158;-82
2023/11/13 05:19:09;;;;;;;208.07;194.53;;;7.60;99.90;;;;;;5045248;28;20408;-82
2023/11/13 05:21:35;;;;;;;198.33;185.20;;;7.60;99.90;;;;;;5044504;28;20221;-82
2023/11/13 05:24:01;;;;;;;171.57;159.17;;;7.70;99.90;;;;;;5026720;28;20448;-82
2023/11/13 05:26:26;;;;;;;251.53;236.43;;;7.60;99.90;;;;;;5026889;28;20170;-82
2023/11/13 05:28:55;;;;;;;245.17;230.27;;;7.60;99.90;;;;;;5044946;28;20159;-82
2023/11/13 05:31:20;;;;;;;241.23;226.45;;;7.70;99.90;;;;;;5026775;28;20165;-82
2023/11/13 05:33:46;;;;;;;226.37;211.83;;;7.60;99.90;;;;;;5044745;28;20269;-82
2023/11/13 05:36:12;;;;;;;184.70;171.93;;;7.70;99.90;;;;;;5026757;28;20427;-82
2023/11/13 05:38:42;;;;;;;207.27;193.57;;;7.60;99.90;;;;;;5044829;28;20173;-82
2023/11/13 05:41:07;;;;;;;220.45;206.30;;;7.60;99.90;;;;;;5043865;28;20161;-82
2023/11/13 05:43:33;;;;;;;228.97;214.50;;;7.60;99.90;;;;;;5044255;28;20206;-82
2023/11/13 05:45:59;;;;;;;214.70;200.60;;;7.60;99.90;;;;;;5044411;28;20508;-82
2023/11/13 05:48:25;;;;;;;230.90;216.47;;;7.60;99.90;;;;;;5026884;28;20234;-82
2023/11/13 05:50:50;;;;;;;207.60;193.87;;;7.60;99.90;;;;;;5044461;28;20158;-82
2023/11/13 05:53:16;;;;;;;193.03;180.43;;;7.60;99.90;;;;;;5043850;28;20205;-82
2023/11/13 05:55:42;;;;;;;218.00;204.03;;;7.60;99.90;;;;;;5042608;28;20527;-82
2023/11/13 05:58:07;;;;;;;215.40;201.27;;;7.60;99.90;;;;;;5042292;28;20532;-82
2023/11/13 06:00:33;;;;;;;189.67;176.80;;;7.60;99.90;;;;;;5042039;28;20594;-82
2023/11/13 06:02:59;;;;;;;238.00;223.37;;;7.60;99.90;;;;;;5041755;28;20170;-82
2023/11/13 06:05:24;;;;;;;203.60;189.87;;;7.60;99.90;;;;;;5041672;28;20176;-82
2023/11/13 06:07:50;;;;;;;193.70;180.30;;;7.60;99.90;;;;;;5041726;28;20174;-82
2023/11/13 06:10:16;;;;;;;213.03;198.87;;;7.70;99.90;;;;;;5041647;28;20527;-82
2023/11/13 06:12:41;;;;;;;249.43;234.33;;;7.60;99.90;;;;;;5041624;28;20162;-81
2023/11/13 06:15:13;;;;;;;180.23;167.87;;;7.60;99.90;;;;;;5041940;28;20401;-81
2023/11/13 06:17:43;;;;;;;215.45;201.25;;;7.60;99.90;;;;;;5042116;28;20150;-81
2023/11/13 06:20:13;;;;;;;200.77;187.20;;;7.70;99.90;;;;;;5041629;28;20162;-81
2023/11/13 06:22:42;;;;;;;217.05;202.93;;;7.60;99.90;;;;;;5023837;28;20261;-81
2023/11/13 06:25:10;;;;;;;189.48;176.32;;;7.60;99.90;;;;;;5022282;28;20186;-79
2023/11/13 06:27:36;;;;;;;211.93;197.73;;;7.60;99.90;;;;;;5023287;28;20651;-80
2023/11/13 06:30:02;;;;;;;239.80;224.98;;;7.60;99.90;;;;;;5041915;28;20162;-80
2023/11/13 06:32:29;;;;;;;168.88;156.80;;;7.70;99.90;;;;;;5043010;28;20154;-80
2023/11/13 06:34:55;;;;;;;201.43;187.73;;;7.60;99.90;;;;;;5025407;28;20198;-80
2023/11/13 06:37:20;;;;;;;209.68;195.73;;;7.70;99.90;;;;;;5042732;28;20174;-79
2023/11/13 06:39:46;;;;;;;213.60;199.60;;;7.70;99.90;;;;;;5025431;28;20170;-79
2023/11/13 06:42:12;;;;;;;220.10;205.70;;;7.60;99.90;;;;;;5049577;28;20170;-79
2023/11/13 06:44:38;;;;;;;222.37;207.30;;;7.70;99.90;;;;;;5048589;28;20678;-79
2023/11/13 06:47:05;;;;;;;211.10;196.90;;;7.70;99.90;;;;;;5048938;28;20566;-79
2023/11/13 06:49:31;;;;;;;201.93;188.30;;;7.70;99.90;;;;;;5030855;28;20726;-79
2023/11/13 06:51:57;;;;;;;200.15;186.23;;;7.70;99.90;;;;;;5048873;28;20245;-79
2023/11/13 06:54:23;;;;;;;168.23;156.27;;;7.70;99.90;;;;;;5048454;28;20189;-79
2023/11/13 06:56:50;;;;;;;207.00;193.15;;;7.70;99.90;;;;;;5048880;28;20196;-79
2023/11/13 06:59:15;;;;;;;193.00;179.40;;;7.80;99.90;;;;;;5048915;28;20640;-79
2023/11/13 07:01:45;;;;;;;201.27;187.60;;;7.80;99.90;;;;;;5049168;28;20250;-79
2023/11/13 07:04:10;;;;;;;199.52;186.52;;;7.80;99.90;;;;;;5048593;28;20467;-79
2023/11/13 07:06:37;;;;;;;186.00;172.50;;;7.80;99.90;;;;;;5048171;28;20166;-79
2023/11/13 07:09:10;;;;;;;178.65;166.13;;;7.80;99.90;;;;;;5047740;28;20428;-79
2023/11/13 07:11:36;;;;;;;198.05;183.75;;;7.80;99.90;;;;;;5048224;28;20166;-79
2023/11/13 07:14:01;;;;;;;197.43;184.30;;;7.80;99.90;;;;;;5048093;28;20536;-79
2023/11/13 07:16:27;;;;;;;173.17;160.60;;;7.90;99.90;;;;;;5030263;28;20408;-79
2023/11/13 07:18:53;;;;;;;225.27;210.80;;;7.90;99.90;;;;;;5048125;28;20543;-79
2023/11/13 07:21:19;;;;;;;295.07;278.83;;;7.90;99.90;;;;;;5046254;28;20970;-79
2023/11/13 07:23:45;;;;;;;196.47;182.67;;;8.00;99.90;;;;;;5047070;28;20477;-79
2023/11/13 07:26:13;;;;;;;189.37;175.60;;;8.00;99.90;;;;;;5047546;28;20431;-79
2023/11/13 07:28:38;;;;;;;234.43;219.20;;;8.10;99.90;;;;;;5043624;28;20225;-79
2023/11/13 07:31:06;;;;;;;211.53;197.00;;;8.10;99.90;;;;;;5044272;28;20150;-79
2023/11/13 07:33:32;;;;;;;192.02;179.13;;;8.20;99.90;;;;;;5044248;28;20184;-79
2023/11/13 07:35:58;;;;;;;171.47;158.83;;;8.30;99.90;;;;;;5026597;28;20587;-79
2023/11/13 07:38:24;;;;;;;174.90;162.50;;;8.30;99.90;;;;;;5043592;28;20535;-79
2023/11/13 07:40:50;;;;;;;186.88;173.75;;;8.30;99.90;;;;;;5043732;28;20169;-79
2023/11/13 07:43:15;;;;;;;212.27;197.63;;;8.30;99.90;;;;;;5025573;28;20253;-79
2023/11/13 07:45:42;;;;;;;181.93;168.97;;;8.40;99.90;;;;;;5043405;28;20154;-79
2023/11/13 07:48:08;;;;;;;186.80;173.85;;;8.40;99.90;;;;;;5042691;28;20158;-79
2023/11/13 07:50:35;;;;;;;177.00;163.90;;;8.40;99.90;;;;;;5043363;28;20257;-79
2023/11/13 07:53:00;;;;;;;165.27;152.88;;;8.50;99.90;;;;;;5042741;28;20217;-79
2023/11/13 07:55:27;;;;;;;152.40;139.87;;;8.50;99.90;;;;;;5043031;28;20162;-78
2023/11/13 07:57:53;;;;;;;187.10;173.70;;;8.50;99.90;;;;;;5025399;28;20529;-78
2023/11/13 08:00:23;;;;;;;169.98;157.35;;;8.60;99.90;;;;;;5042285;28;20190;-78
2023/11/13 08:02:49;;;;;;;161.80;149.18;;;8.60;99.90;;;;;;5042834;28;20197;-78
2023/11/13 08:05:16;;;;;;;158.17;146.40;;;8.60;99.90;;;;;;5042418;28;20202;-78
2023/11/13 08:07:43;;;;;;;198.63;185.00;;;8.70;99.90;;;;;;5043560;28;20177;-78
2023/11/13 08:10:13;;;;;;;171.85;159.23;;;8.70;99.90;;;;;;5042780;28;20648;-78
2023/11/13 08:12:45;;;;;;;199.23;184.68;;;8.80;99.90;;;;;;5042987;28;20627;-78
2023/11/13 08:15:14;;;;;;;151.35;139.32;;;8.80;99.90;;;;;;5042056;28;20146;-78
2023/11/13 08:17:44;;;;;;;193.68;179.50;;;8.80;99.90;;;;;;5044971;28;20170;-78
2023/11/13 08:20:13;;;;;;;199.02;185.13;;;8.90;99.90;;;;;;5043846;28;20158;-78
2023/11/13 08:22:41;;;;;;;174.70;161.48;;;8.90;99.90;;;;;;5026668;28;20178;-79
2023/11/13 08:25:11;;;;;;;177.07;163.15;;;8.90;99.90;;;;;;5044429;28;20599;-79
2023/11/13 08:27:44;;;;;;;166.60;154.23;;;9.00;99.90;;;;;;5045765;28;20622;-79
2023/11/13 08:30:14;;;;;;;173.65;159.75;;;9.00;99.90;;;;;;5045047;28;20208;-79
2023/11/13 08:32:40;;;;;;;167.23;154.55;;;9.00;99.90;;;;;;5043926;28;20166;-79
2023/11/13 08:35:15;;;;;;;148.70;137.32;;;9.10;99.90;;;;;;5046208;28;20208;-79
2023/11/13 08:37:50;;;;;;;186.30;173.25;;;9.10;99.90;;;;;;5030327;28;20169;-79
2023/11/13 08:40:29;;;;;;;160.23;147.93;;;9.10;99.90;;;;;;5048175;28;20145;-79
2023/11/13 08:42:56;;;;;;;158.90;146.90;;;9.10;99.90;;;;;;5048658;28;20154;-79
2023/11/13 08:45:24;;;;;;;180.95;167.93;;;9.20;99.90;;;;;;5048654;28;20228;-79
2023/11/13 08:47:51;;;;;;;169.82;157.27;;;9.20;99.90;;;;;;5047514;28;20162;-79
2023/11/13 08:50:18;;;;;;;175.77;162.57;;;9.20;99.90;;;;;;5048535;28;20166;-79
2023/11/13 08:52:46;;;;;;;201.02;187.45;;;9.20;99.90;;;;;;5047735;28;20170;-78
2023/11/13 08:55:21;;;;;;;184.45;171.05;;;9.30;99.90;;;;;;5049147;28;20567;-79
2023/11/13 08:57:49;;;;;;;197.18;183.90;;;9.30;99.90;;;;;;5048310;28;20151;-79
2023/11/13 09:00:24;;;;;;;218.98;204.48;;;9.30;99.90;;;;;;5048925;28;20177;-79
2023/11/13 09:02:53;;;;;;;189.40;175.90;;;9.30;99.90;;;;;;5048976;28;20141;-79
2023/11/13 09:05:20;;;;;;;160.13;148.50;;;9.40;99.90;;;;;;5028385;28;20240;-78
2023/11/13 09:07:46;;;;;;;162.80;150.50;;;9.40;99.90;;;;;;5044276;28;20217;-79
2023/11/13 09:10:12;;;;;;;193.93;180.77;;;9.30;99.90;;;;;;5044276;28;20166;-79
2023/11/13 09:12:41;;;;;;;170.88;158.88;;;9.40;99.90;;;;;;5044600;28;20165;-79
2023/11/13 09:15:14;;;;;;;189.50;176.35;;;9.40;99.90;;;;;;5044298;28;20169;-79
2023/11/13 09:17:45;;;;;;;190.10;176.93;;;9.40;99.90;;;;;;5044361;28;20515;-79
2023/11/13 09:20:15;;;;;;;185.32;172.38;;;9.50;99.90;;;;;;5043661;28;20190;-79
2023/11/13 09:22:44;;;;;;;154.02;142.27;;;9.50;99.90;;;;;;5044205;28;20166;-79
2023/11/13 09:25:49;;;;;;;174.00;161.43;;;9.50;99.90;;;;;;5044446;28;20277;-79
2023/11/13 09:28:15;;;;;;;188.13;175.00;;;9.60;99.90;;;;;;5043401;28;20153;-79
2023/11/13 09:30:41;;;;;;;186.00;172.87;;;9.60;99.90;;;;;;5043644;28;20158;-79
2023/11/13 09:33:49;;;;;;;173.57;160.93;;;9.60;99.90;;;;;;5025280;28;20464;-79
2023/11/13 09:36:16;;;;;;;153.95;142.13;;;9.70;99.90;;;;;;5042847;28;20188;-79
2023/11/13 09:38:42;;;;;;;166.48;154.32;;;9.70;99.90;;;;;;5025428;28;20158;-79
2023/11/13 09:41:08;;;;;;;152.80;141.20;;;9.60;99.90;;;;;;5043929;28;20248;-79
2023/11/13 09:43:36;;;;;;;177.25;164.38;;;9.60;99.90;;;;;;5043129;28;20645;-79
2023/11/13 09:46:06;;;;;;;150.32;138.75;;;9.60;99.90;;;;;;5042618;28;20173;-80
2023/11/13 09:48:43;;;;;;;152.90;141.50;;;9.60;99.90;;;;;;5044267;28;20527;-80
2023/11/13 09:51:13;;;;;;;196.63;181.65;;;9.60;99.90;;;;;;5045440;28;20154;-79
2023/11/13 09:53:42;;;;;;;173.90;160.98;;;9.50;99.90;;;;;;5027815;28;20197;-80
2023/11/13 09:56:11;;;;;;;193.80;180.32;;;9.50;99.90;;;;;;5047672;28;20166;-81
2023/11/13 09:58:41;;;;;;;195.85;182.60;;;9.50;99.90;;;;;;5028427;28;20162;-80
2023/11/13 10:01:13;;;;;;;170.95;158.68;;;9.60;99.90;;;;;;5045564;28;20204;-80
2023/11/13 10:03:40;;;;;;;166.57;154.55;;;9.70;99.90;;;;;;5046185;28;20198;-81
2023/11/13 10:06:13;;;;;;;148.13;136.45;;;9.70;99.90;;;;;;5045335;28;20158;-81
2023/11/13 10:08:46;;;;;;;149.18;137.70;;;9.70;99.90;;;;;;5026378;28;20188;-80
2023/11/13 10:11:12;;;;;;;146.35;135.00;;;9.80;99.90;;;;;;5043681;28;20142;-80
2023/11/13 10:13:38;;;;;;;165.10;152.93;;;9.80;99.90;;;;;;5043128;28;20186;-80
2023/11/13 10:16:24;;;;;;;152.85;140.98;;;9.80;99.90;;;;;;5025951;28;20413;-80
2023/11/13 10:18:56;;;;;;;133.73;122.97;;;9.80;99.90;;;;;;5043328;28;20200;-80
2023/11/13 10:21:35;;;;;;;240.10;225.18;;;9.90;99.90;;;;;;5026835;28;20201;-80
2023/11/13 10:24:21;;;;;;;143.68;132.52;;;9.80;99.90;;;;;;5045588;28;20213;-81
2023/11/13 10:26:55;;;;;;;154.68;142.88;;;9.90;99.90;;;;;;5027859;28;20150;-80
2023/11/13 10:29:33;;;;;;;129.25;118.68;;;9.90;99.90;;;;;;5025649;28;20512;-80
2023/11/13 10:32:05;;;;;;;136.73;125.80;;;9.90;99.90;;;;;;5043528;28;20141;-81
2023/11/13 10:34:45;;;;;;;160.38;148.15;;;9.90;99.90;;;;;;5025963;28;20189;-80
2023/11/13 10:37:18;;;;;;;127.45;116.53;;;10.00;99.90;;;;;;5025834;28;20176;-81
2023/11/13 10:39:47;;;;;;;119.32;109.10;;;10.00;99.90;;;;;;5043322;28;20158;-81
2023/11/13 10:42:23;;;;;;;120.97;110.82;;;10.00;99.90;;;;;;5042617;28;20258;-81
2023/11/13 10:44:51;;;;;;;121.43;111.28;;;10.10;99.90;;;;;;5042195;28;20193;-81
2023/11/13 10:47:32;;;;;;;106.75;97.20;;;10.10;99.90;;;;;;5042564;28;20173;-80
2023/11/13 10:49:59;;;;;;;103.13;93.53;;;10.20;99.90;;;;;;5042521;28;20178;-81
2023/11/13 10:52:29;;;;;;;96.43;86.82;;;10.20;99.90;;;;;;5024945;28;20189;-81
2023/11/13 10:55:04;;;;;;;97.15;87.68;;;10.20;99.90;;;;;;5042361;28;20667;-81
2023/11/13 10:57:30;;;;;;;94.40;85.60;;;10.30;99.90;;;;;;5041698;28;20150;-81
2023/11/13 10:59:59;;;;;;;82.25;73.75;;;10.30;99.90;;;;;;5042458;28;20249;-81
2023/11/13 11:02:32;;;;;;;90.10;81.40;;;10.40;99.90;;;;;;5042605;28;20162;-81
2023/11/13 11:05:09;;;;;;;93.55;84.88;;;10.40;99.90;;;;;;5024535;28;20240;-81
2023/11/13 11:07:39;;;;;;;113.88;103.28;;;10.40;99.90;;;;;;5042949;28;20147;-81
2023/11/13 11:10:06;;;;;;;123.03;112.47;;;10.50;99.90;;;;;;5041522;28;20201;-81
2023/11/13 11:12:46;;;;;;;118.13;107.50;;;10.50;99.90;;;;;;5042473;28;20166;-81
2023/11/13 11:15:43;;;;;;;107.18;97.43;;;10.60;99.90;;;;;;5043629;28;20157;-81
2023/11/13 11:18:32;;;;;;;91.15;82.10;;;10.60;99.90;;;;;;5024477;28;20170;-81
2023/11/13 11:21:12;;;;;;;84.53;76.13;;;10.60;99.90;;;;;;5042511;28;20204;-81
2023/11/13 11:23:54;;;;;;;96.05;86.65;;;10.60;99.90;;;;;;5041894;28;20198;-81
2023/11/13 11:26:20;;;;;;;115.45;105.55;;;10.70;99.90;;;;;;5042204;28;20582;-81
2023/11/13 11:28:51;;;;;;;109.90;100.07;;;10.60;99.90;;;;;;5041617;28;20157;-81
2023/11/13 11:31:39;;;;;;;94.25;85.40;;;10.60;99.90;;;;;;5042722;28;20547;-81
2023/11/13 11:34:06;;;;;;;93.82;84.78;;;10.70;99.90;;;;;;5042846;28;20213;-81
2023/11/13 11:36:37;;;;;;;95.28;86.07;;;10.70;99.90;;;;;;5042496;28;20173;-81
2023/11/13 11:39:13;;;;;;;90.57;82.03;;;10.80;99.90;;;;;;5042618;28;20262;-81
2023/11/13 11:41:42;;;;;;;86.45;77.68;;;10.90;99.90;;;;;;5024780;28;20176;-81
2023/11/13 11:44:11;;;;;;;104.32;94.72;;;10.90;99.90;;;;;;5042076;28;20189;-81
2023/11/13 11:46:50;;;;;;;92.88;84.00;;;11.00;99.90;;;;;;5043985;28;20164;-81
2023/11/13 11:49:26;;;;;;;90.88;82.22;;;11.00;99.90;;;;;;5042931;28;20152;-81
2023/11/13 11:51:59;;;;;;;97.28;88.45;;;11.10;99.90;;;;;;5043704;28;20165;-81
2023/11/13 11:54:24;;;;;;;97.75;88.35;;;11.10;99.90;;;;;;5025278;28;20190;-81
2023/11/13 11:56:56;;;;;;;93.60;84.80;;;11.20;99.90;;;;;;5042138;28;20154;-81
2023/11/13 11:59:24;;;;;;;86.50;77.88;;;11.20;99.90;;;;;;5042106;28;20196;-81
2023/11/13 12:01:50;;;;;;;98.20;88.88;;;11.20;99.90;;;;;;5041489;28;20635;-81
2023/11/13 12:04:16;;;;;;;84.87;76.33;;;11.20;99.90;;;;;;5023719;28;20217;-80
2023/11/13 12:06:48;;;;;;;76.43;68.20;;;11.30;99.90;;;;;;5023267;28;20404;-81
2023/11/13 12:09:18;;;;;;;82.60;74.05;;;11.40;99.90;;;;;;5025381;28;20157;-82
2023/11/13 12:11:51;;;;;;;87.18;78.28;;;11.40;99.90;;;;;;5042256;28;20181;-81
2023/11/13 12:14:18;;;;;;;72.38;63.40;;;11.40;99.90;;;;;;5040828;28;20265;-81
2023/11/13 12:16:44;;;;;;;73.00;65.03;;;11.40;99.90;;;;;;5023046;28;20174;-80
2023/11/13 12:19:11;;;;;;;75.82;67.63;;;11.40;99.90;;;;;;5041150;28;20252;-80
2023/11/13 12:21:39;;;;;;;74.47;62.60;;;11.30;99.90;;;;;;5042708;28;20169;-80
2023/11/13 12:24:06;;;;;;;70.72;62.05;;;11.40;99.90;;;;;;5027184;28;20193;-80